sensor_id;sensor_type;location;lat;lon;timestamp;pressure;altitude;pressure_sealevel;temperature;humidity
48644;BME280;34928;37.302;-121.984;2023-03-21T00:04:42;100365.0;;;24.86;21.59
48644;BME280;34928;37.302;-121.984;2023-03-21T00:14:47;100356.0;;;25.32;21.18
48644;BME280;34928;37.302;-121.984;2023-03-21T00:24:52;100341.0;;;25.27;21.45
48644;BME280;34928;37.302;-121.984;2023-03-21T00:34:57;100337.0;;;25.27;21.09
48644;BME280;34928;37.302;-121.984;2023-03-21T00:45:03;100320.0;;;24.70;21.35
48644;BME280;34928;37.302;-121.984;2023-03-21T00:55:10;100300.0;;;25.17;21.47
48644;BME280;34928;37.302;-121.984;2023-03-21T01:05:17;100310.0;;;25.39;21.71
48644;BME280;34928;37.302;-121.984;2023-03-21T01:15:22;100303.0;;;25.86;21.83
48644;BME280;34928;37.302;-121.984;2023-03-21T01:25:28;100278.0;;;26.24;21.94
48644;BME280;34928;37.302;-121.984;2023-03-21T01:35:35;100258.0;;;26.64;21.90
48644;BME280;34928;37.302;-121.984;2023-03-21T01:56:00;100239.0;;;26.57;21.99
48644;BME280;34928;37.302;-121.984;2023-03-21T02:06:10;100232.0;;;26.95;21.82
48644;BME280;34928;37.302;-121.984;2023-03-21T02:16:23;100202.0;;;27.17;21.93
48644;BME280;34928;37.302;-121.984;2023-03-21T02:26:42;100205.0;;;26.98;22.41
48644;BME280;34928;37.302;-121.984;2023-03-21T02:37:00;100193.0;;;27.39;22.37
48644;BME280;34928;37.302;-121.984;2023-03-21T02:47:11;100210.0;;;27.14;22.84
48644;BME280;34928;37.302;-121.984;2023-03-21T02:57:19;100222.0;;;27.78;22.52
48644;BME280;34928;37.302;-121.984;2023-03-21T03:07:33;100222.0;;;27.45;22.81
48644;BME280;34928;37.302;-121.984;2023-03-21T03:17:49;100213.0;;;27.50;22.70
48644;BME280;34928;37.302;-121.984;2023-03-21T03:27:54;100219.0;;;27.90;22.48
48644;BME280;34928;37.302;-121.984;2023-03-21T03:38:02;100222.0;;;27.48;22.68
48644;BME280;34928;37.302;-121.984;2023-03-21T03:48:14;100201.0;;;27.91;22.46
48644;BME280;34928;37.302;-121.984;2023-03-21T03:58:24;100183.0;;;27.43;22.63
48644;BME280;34928;37.302;-121.984;2023-03-21T04:08:27;100174.0;;;27.62;22.29
48644;BME280;34928;37.302;-121.984;2023-03-21T04:18:32;100154.0;;;28.17;22.07
48644;BME280;34928;37.302;-121.984;2023-03-21T04:28:37;100171.0;;;28.10;22.31
48644;BME280;34928;37.302;-121.984;2023-03-21T04:38:44;100176.0;;;28.00;22.08
48644;BME280;34928;37.302;-121.984;2023-03-21T04:48:47;100171.0;;;27.31;22.55
48644;BME280;34928;37.302;-121.984;2023-03-21T04:58:52;100164.0;;;28.09;22.05
48644;BME280;34928;37.302;-121.984;2023-03-21T05:09:01;100153.0;;;28.06;21.94
48644;BME280;34928;37.302;-121.984;2023-03-21T05:19:07;100156.0;;;27.67;22.35
48644;BME280;34928;37.302;-121.984;2023-03-21T05:29:12;100147.0;;;27.96;21.88
48644;BME280;34928;37.302;-121.984;2023-03-21T05:39:18;100148.0;;;28.07;21.79
48644;BME280;34928;37.302;-121.984;2023-03-21T05:49:22;100144.0;;;27.92;21.89
48644;BME280;34928;37.302;-121.984;2023-03-21T05:59:28;100139.0;;;27.73;22.16
48644;BME280;34928;37.302;-121.984;2023-03-21T06:09:33;100124.0;;;27.72;22.12
48644;BME280;34928;37.302;-121.984;2023-03-21T06:19:42;100111.0;;;27.42;22.12
48644;BME280;34928;37.302;-121.984;2023-03-21T06:29:47;100101.0;;;27.65;22.46
48644;BME280;34928;37.302;-121.984;2023-03-21T06:39:52;100088.0;;;27.58;22.08
48644;BME280;34928;37.302;-121.984;2023-03-21T06:49:58;100078.0;;;27.27;22.44
48644;BME280;34928;37.302;-121.984;2023-03-21T07:00:03;100050.0;;;27.75;22.16
48644;BME280;34928;37.302;-121.984;2023-03-21T07:10:09;100020.0;;;27.94;21.98
48644;BME280;34928;37.302;-121.984;2023-03-21T07:20:12;99994.0;;;26.96;22.39
48644;BME280;34928;37.302;-121.984;2023-03-21T07:30:18;99952.0;;;27.47;22.09
48644;BME280;34928;37.302;-121.984;2023-03-21T07:40:22;99913.0;;;27.54;22.16
48644;BME280;34928;37.302;-121.984;2023-03-21T07:50:28;99885.0;;;27.55;22.06
48644;BME280;34928;37.302;-121.984;2023-03-21T08:00:33;99865.0;;;27.37;21.92
48644;BME280;34928;37.302;-121.984;2023-03-21T08:10:38;99837.0;;;26.97;22.26
48644;BME280;34928;37.302;-121.984;2023-03-21T08:20:42;99829.0;;;27.50;21.99
48644;BME280;34928;37.302;-121.984;2023-03-21T08:30:48;99806.0;;;27.44;21.95
48644;BME280;34928;37.302;-121.984;2023-03-21T08:40:52;99784.0;;;27.22;22.08
48644;BME280;34928;37.302;-121.984;2023-03-21T08:51:01;99767.0;;;27.08;22.17
48644;BME280;34928;37.302;-121.984;2023-03-21T09:01:08;99754.0;;;26.88;22.29
48644;BME280;34928;37.302;-121.984;2023-03-21T09:11:12;99734.0;;;27.14;22.29
48644;BME280;34928;37.302;-121.984;2023-03-21T09:21:22;99726.0;;;26.81;22.36
48644;BME280;34928;37.302;-121.984;2023-03-21T09:31:27;99722.0;;;26.73;22.38
48644;BME280;34928;37.302;-121.984;2023-03-21T09:41:40;99704.0;;;26.91;22.45
48644;BME280;34928;37.302;-121.984;2023-03-21T09:51:50;99678.0;;;26.84;22.49
48644;BME280;34928;37.302;-121.984;2023-03-21T10:01:57;99655.0;;;26.63;22.63
48644;BME280;34928;37.302;-121.984;2023-03-21T10:12:06;99634.0;;;26.52;22.74
48644;BME280;34928;37.302;-121.984;2023-03-21T10:22:17;99613.0;;;26.41;22.80
48644;BME280;34928;37.302;-121.984;2023-03-21T10:32:22;99580.0;;;26.29;22.91
48644;BME280;34928;37.302;-121.984;2023-03-21T10:42:29;99546.0;;;26.01;22.92
48644;BME280;34928;37.302;-121.984;2023-03-21T10:52:33;99509.0;;;26.23;22.94
48644;BME280;34928;37.302;-121.984;2023-03-21T11:02:37;99468.0;;;25.94;22.96
48644;BME280;34928;37.302;-121.984;2023-03-21T11:12:47;99428.0;;;26.37;22.95
48644;BME280;34928;37.302;-121.984;2023-03-21T11:22:54;99388.0;;;26.26;23.07
48644;BME280;34928;37.302;-121.984;2023-03-21T11:33:00;99338.0;;;26.01;23.28
48644;BME280;34928;37.302;-121.984;2023-03-21T11:53:35;99287.0;;;25.88;23.41
48644;BME280;34928;37.302;-121.984;2023-03-21T12:03:51;99232.0;;;25.84;23.47
48644;BME280;34928;37.302;-121.984;2023-03-21T12:14:03;99219.0;;;25.87;23.45
48644;BME280;34928;37.302;-121.984;2023-03-21T12:24:17;99181.0;;;25.81;23.49
48644;BME280;34928;37.302;-121.984;2023-03-21T12:34:39;99145.0;;;25.77;23.50
48644;BME280;34928;37.302;-121.984;2023-03-21T12:44:51;99123.0;;;25.83;23.59
48644;BME280;34928;37.302;-121.984;2023-03-21T12:55:00;99108.0;;;25.48;23.71
48644;BME280;34928;37.302;-121.984;2023-03-21T13:05:16;99091.0;;;24.09;23.76
48644;BME280;34928;37.302;-121.984;2023-03-21T13:15:47;99075.0;;;25.20;23.66
48644;BME280;34928;37.302;-121.984;2023-03-21T13:25:57;99058.0;;;25.61;23.60
48644;BME280;34928;37.302;-121.984;2023-03-21T13:36:06;99041.0;;;26.10;23.56
48644;BME280;34928;37.302;-121.984;2023-03-21T13:46:14;99017.0;;;26.16;23.43
48644;BME280;34928;37.302;-121.984;2023-03-21T13:56:49;98985.0;;;26.25;23.55
48644;BME280;34928;37.302;-121.984;2023-03-21T14:06:56;98959.0;;;26.96;23.12
48644;BME280;34928;37.302;-121.984;2023-03-21T14:17:11;98926.0;;;26.27;24.97
48644;BME280;34928;37.302;-121.984;2023-03-21T14:27:18;98893.0;;;26.80;24.33
48644;BME280;34928;37.302;-121.984;2023-03-21T14:37:28;98862.0;;;27.19;24.87
48644;BME280;34928;37.302;-121.984;2023-03-21T14:47:33;98871.0;;;26.44;25.19
48644;BME280;34928;37.302;-121.984;2023-03-21T14:57:38;98856.0;;;27.56;24.36
48644;BME280;34928;37.302;-121.984;2023-03-21T15:07:42;98805.0;;;27.35;23.98
48644;BME280;34928;37.302;-121.984;2023-03-21T15:18:04;98752.0;;;27.38;23.92
48644;BME280;34928;37.302;-121.984;2023-03-21T15:28:10;98726.0;;;27.20;23.89
48644;BME280;34928;37.302;-121.984;2023-03-21T15:38:23;98690.0;;;26.89;23.97
48644;BME280;34928;37.302;-121.984;2023-03-21T15:48:34;98664.0;;;27.02;23.71
48644;BME280;34928;37.302;-121.984;2023-03-21T15:58:42;98634.0;;;26.97;23.58
48644;BME280;34928;37.302;-121.984;2023-03-21T16:08:49;98628.0;;;26.83;23.56
48644;BME280;34928;37.302;-121.984;2023-03-21T16:18:53;98616.0;;;26.84;23.42
48644;BME280;34928;37.302;-121.984;2023-03-21T16:28:58;98586.0;;;26.67;23.67
48644;BME280;34928;37.302;-121.984;2023-03-21T16:39:14;98555.0;;;26.26;23.69
48644;BME280;34928;37.302;-121.984;2023-03-21T16:49:24;98523.0;;;26.30;23.77
48644;BME280;34928;37.302;-121.984;2023-03-21T16:59:27;98504.0;;;25.99;23.95
48644;BME280;34928;37.302;-121.984;2023-03-21T17:09:32;98501.0;;;26.34;23.64
48644;BME280;34928;37.302;-121.984;2023-03-21T17:19:37;98473.0;;;26.35;23.54
48644;BME280;34928;37.302;-121.984;2023-03-21T17:29:42;98442.0;;;26.37;23.44
48644;BME280;34928;37.302;-121.984;2023-03-21T17:39:47;98457.0;;;26.00;23.66
48644;BME280;34928;37.302;-121.984;2023-03-21T17:49:53;98447.0;;;25.69;23.97
48644;BME280;34928;37.302;-121.984;2023-03-21T17:59:58;98430.0;;;25.78;23.93
48644;BME280;34928;37.302;-121.984;2023-03-21T18:10:02;98446.0;;;25.28;24.05
48644;BME280;34928;37.302;-121.984;2023-03-21T18:20:10;98453.0;;;25.36;24.14
48644;BME280;34928;37.302;-121.984;2023-03-21T18:30:18;98443.0;;;25.55;24.04
48644;BME280;34928;37.302;-121.984;2023-03-21T18:40:22;98443.0;;;25.51;24.05
48644;BME280;34928;37.302;-121.984;2023-03-21T18:50:27;98414.0;;;24.89;24.34
48644;BME280;34928;37.302;-121.984;2023-03-21T19:00:32;98403.0;;;24.61;24.50
48644;BME280;34928;37.302;-121.984;2023-03-21T19:10:37;98397.0;;;24.91;24.48
48644;BME280;34928;37.302;-121.984;2023-03-21T19:20:44;98412.0;;;25.46;24.03
48644;BME280;34928;37.302;-121.984;2023-03-21T19:30:47;98406.0;;;25.71;23.78
48644;BME280;34928;37.302;-121.984;2023-03-21T19:40:57;98391.0;;;25.51;23.85
48644;BME280;34928;37.302;-121.984;2023-03-21T19:51:02;98376.0;;;25.02;24.21
48644;BME280;34928;37.302;-121.984;2023-03-21T20:01:07;98366.0;;;24.82;24.28
48644;BME280;34928;37.302;-121.984;2023-03-21T22:44:11;98679.0;;;16.99;38.75
48644;BME280;34928;37.302;-121.984;2023-03-21T22:54:17;98703.0;;;20.78;30.54
48644;BME280;34928;37.302;-121.984;2023-03-21T23:04:22;98738.0;;;20.38;30.02
48644;BME280;34928;37.302;-121.984;2023-03-21T23:14:27;98759.0;;;22.29;27.61
48644;BME280;34928;37.302;-121.984;2023-03-21T23:24:32;98764.0;;;23.15;26.36
48644;BME280;34928;37.302;-121.984;2023-03-21T23:34:37;98788.0;;;23.08;25.79
48644;BME280;34928;37.302;-121.984;2023-03-21T23:44:42;98783.0;;;23.30;25.41
48644;BME280;34928;37.302;-121.984;2023-03-21T23:54:53;98804.0;;;23.98;25.21
